Flight Track Log - Related Links

Times and Time Zones

All times are in EDT time to prevent confusion due to time zone crossing. See the EGF3966 flight status page for this flight to view local times or setup timezone preferences in your user account.

Time Position Orientation Groundspeed Altitude Reporting Facility
EDT Latitude Longitude Course Direction KTS MPH feet Rate Location/Type
Sat 01:55:08 PM 45.4500 -73.7167 257° West 110 127 800  Level Montreal Center
Sat 01:56:08 PM 45.4000 -73.7667 215° Southwest 200 230 2,900 2,250 Climbing Montreal Center
Sat 01:57:00 PM 45.5940 -74.1183 300° West  Level FlightAware Approximate
Sat 01:57:08 PM 45.3667 -73.8500 240° Southwest 220 253 5,300  Level Montreal Center
Sat 01:58:00 PM 45.5705 -74.2515 250° West  Level FlightAware Approximate
Sat 01:58:08 PM 45.3333 -73.9167 235° Southwest 240 276 7,500  Level Montreal Center
Sat 01:59:00 PM 45.5259 -74.3790 243° Southwest  Level FlightAware Approximate
Sat 01:59:08 PM 45.3667 -74.0167 295° West 250 288 10,100  Level Montreal Center
Sat 02:00:00 PM 45.4953 -74.5117 257° West  Level FlightAware Approximate
Sat 02:00:08 PM 45.4000 -74.1000 300° West 280 322 11,000  Level Montreal Center
Sat 02:01:08 PM 45.4167 -74.2500 279° West 320 368 12,500 1,400 Climbing Montreal Center
Sat 02:02:08 PM 45.4167 -74.3667 270° West 340 391 13,800 1,400 Climbing Montreal Center
Sat 02:03:08 PM 45.4167 -74.5167 270° West 340 391 15,300 1,400 Climbing Montreal Center
Sat 02:04:08 PM 45.4167 -74.6500 270° West 350 403 16,600 1,300 Climbing Montreal Center
Sat 02:05:08 PM 45.4167 -74.8000 270° West 350 403 17,900 1,050 Climbing Montreal Center
Sat 02:06:08 PM 45.4000 -74.9500 261° West 360 414 18,700 1,100 Climbing Montreal Center
Sat 02:07:08 PM 45.4000 -75.0833 270° West 370 426 20,100 1,450 Climbing Montreal Center
Sat 02:08:08 PM 45.4000 -75.2333 270° West 360 414 21,600 1,400 Climbing Montreal Center
Sat 02:09:08 PM 45.4000 -75.3667 270° West 370 426 22,900 1,400 Climbing Montreal Center
Sat 02:10:08 PM 45.4000 -75.5167 270° West 370 426 24,400 1,350 Climbing Montreal Center
Sat 02:11:08 PM 45.4000 -75.6500 270° West 370 426 25,600 1,150 Climbing Montreal Center
Sat 02:12:08 PM 45.4000 -75.8167 270° West 370 426 26,700 1,050 Climbing Montreal Center
Sat 02:13:08 PM 45.4000 -75.9500 270° West 370 426 27,700 900 Climbing Montreal Center
Sat 02:14:08 PM 45.4000 -76.1167 270° West 380 437 28,500 700 Climbing Montreal Center
Sat 02:15:08 PM 45.3833 -76.2500 260° West 380 437 29,100 750 Climbing Montreal Center
Sat 02:16:08 PM 45.3500 -76.4000 253° West 390 449 30,000 950 Climbing Montreal Center
Sat 02:17:08 PM 45.3167 -76.5667 254° West 390 449 31,000 500 Climbing Montreal Center
Sat 02:18:08 PM 45.2833 -76.7000 250° West 390 449 31,000 500 Level Montreal Center
Sat 02:19:08 PM 45.2500 -76.8500 253° West 390 449 32,000 1,150 Climbing Montreal Center
Sat 02:20:08 PM 45.2167 -76.9833 251° West 390 449 33,300 1,000 Climbing Montreal Center
Sat 02:21:08 PM 45.1833 -77.1500 254° West 390 449 34,000 350 Climbing Montreal Center
Sat 02:22:08 PM 45.1500 -77.3000 253° West 380 437 34,000  Level Montreal Center
Sat 02:23:08 PM 45.1167 -77.4333 251° West 380 437 34,000  Level Montreal Center
Sat 02:24:08 PM 45.0833 -77.5833 253° West 380 437 34,000  Level Montreal Center
Sat 02:25:07 PM 45.0500 -77.6667 241° Southwest 380 437 34,000  Level Toronto Center
Sat 02:26:07 PM 45.0000 -77.8333 247° West 380 437 34,000  Level Toronto Center
Sat 02:27:07 PM 44.9667 -77.9667 251° West 380 437 34,000  Level Toronto Center
Sat 02:28:07 PM 44.9667 -78.1000 270° West 370 426 34,000  Level Toronto Center
Sat 02:29:07 PM 44.9833 -78.2333 280° West 350 403 34,000  Level Toronto Center
Sat 02:30:07 PM 45.0000 -78.3833 279° West 350 403 34,000  Level Toronto Center
Sat 02:31:07 PM 45.0167 -78.5167 280° West 360 414 34,000  Level Toronto Center
Sat 02:32:07 PM 44.9667 -78.6500 242° Southwest 390 449 34,000  Level Toronto Center
Sat 02:33:07 PM 44.9167 -78.8167 247° West 400 460 34,000  Level Toronto Center
Sat 02:34:07 PM 44.8500 -78.9500 235° Southwest 420 483 34,000  Level Toronto Center
Sat 02:35:07 PM 44.8000 -79.1000 245° Southwest 420 483 34,000  Level Toronto Center
Sat 02:36:07 PM 44.7500 -79.2333 242° Southwest 420 483 34,000  Level Toronto Center
Sat 02:37:07 PM 44.7000 -79.3667 242° Southwest 420 483 34,000  Level Toronto Center
Sat 02:38:07 PM 44.6333 -79.5333 241° Southwest 420 483 34,000  Level Toronto Center
Sat 02:39:07 PM 44.5833 -79.6833 245° Southwest 410 472 34,000  Level Toronto Center
Sat 02:40:07 PM 44.5333 -79.8167 242° Southwest 410 472 34,000  Level Toronto Center
Sat 02:41:07 PM 44.4833 -79.9667 245° Southwest 410 472 34,000  Level Toronto Center
Sat 02:42:07 PM 44.4333 -80.1000 242° Southwest 410 472 34,000  Level Toronto Center
Sat 02:43:07 PM 44.3833 -80.2333 242° Southwest 410 472 34,000  Level Toronto Center
Sat 02:44:07 PM 44.3167 -80.3833 238° Southwest 420 483 34,000  Level Toronto Center
Sat 02:45:07 PM 44.2667 -80.5167 242° Southwest 420 483 34,000  Level Toronto Center
Sat 02:46:07 PM 44.2167 -80.6500 242° Southwest 420 483 34,000  Level Toronto Center
Sat 02:47:07 PM 44.1667 -80.8167 247° West 420 483 34,000  Level Toronto Center
Sat 02:48:07 PM 44.0833 -80.9500 229° Southwest 420 483 34,000  Level Toronto Center
Sat 02:49:07 PM 44.0333 -81.1000 245° Southwest 420 483 34,000  Level Toronto Center
Sat 02:50:07 PM 43.9833 -81.2333 243° Southwest 420 483 34,000  Level Toronto Center
Sat 02:51:07 PM 43.9333 -81.4000 247° West 410 472 34,000  Level Toronto Center
Sat 02:52:07 PM 43.8833 -81.5000 235° Southwest 410 472 34,000  Level Toronto Center
Sat 02:53:07 PM 43.8167 -81.6500 238° Southwest 410 472 34,000  Level Toronto Center
Sat 02:54:07 PM 43.7667 -81.8000 245° Southwest 410 472 34,000  Level Toronto Center
Sat 02:55:07 PM 43.7000 -81.9333 235° Southwest 410 472 34,000  Level Toronto Center
Sat 02:56:07 PM 43.6500 -82.0833 245° Southwest 410 472 34,000  Level Toronto Center
Sat 02:57:07 PM 43.6000 -82.2167 243° Southwest 410 472 34,000  Level Toronto Center
Sat 02:57:45 PM 43.5750 -82.2939 246° West 415 478 34,000  Level Cleveland Center
Sat 02:58:45 PM 43.5208 -82.4325 242° Southwest 415 478 34,000  Level Cleveland Center
Sat 02:59:45 PM 43.4642 -82.5711 241° Southwest 415 478 34,000  Level Cleveland Center
Sat 03:00:45 PM 43.4075 -82.7092 241° Southwest 415 478 34,000  Level Cleveland Center
Sat 03:01:07 PM 43.3667 -82.7500 216° Southwest 420 483 34,000  Level Toronto Center
Sat 03:01:45 PM 43.3486 -82.8469 256° West 415 478 34,000 -184 Level Cleveland Center
Sat 03:02:45 PM 43.2875 -82.9844 239° Southwest 415 478 33,700 -400 Descending Cleveland Center
Sat 03:03:45 PM 43.2306 -83.1219 240° Southwest 415 478 33,200 -500 Descending Cleveland Center
Sat 03:04:45 PM 43.1733 -83.2592 240° Southwest 415 478 32,700 -500 Descending Cleveland Center
Sat 03:05:45 PM 43.1178 -83.3933 240° Southwest 415 478 32,200 -350 Descending Cleveland Center
Sat 03:06:45 PM 43.0581 -83.5328 240° Southwest 415 478 32,000 -100 Descending Cleveland Center
Sat 03:07:45 PM 43.0006 -83.6633 239° Southwest 415 478 32,000  Level Cleveland Center
Sat 03:08:45 PM 42.9611 -83.8089 250° West 410 472 32,000  Level Cleveland Center
Sat 03:09:45 PM 42.9442 -83.9642 262° West 404 465 32,000  Level Cleveland Center
Sat 03:10:45 PM 42.9289 -84.1222 263° West 415 478 32,000  Level Cleveland Center
Sat 03:11:45 PM 42.9136 -84.2772 262° West 421 484 32,000  Level Cleveland Center
Sat 03:13:02 PM 42.8950 -84.4683 262° West 416 479 32,000  Level Chicago Center
Sat 03:14:04 PM 42.8800 -84.6250 263° West 418 481 32,000  Level Chicago Center
Sat 03:15:06 PM 42.8611 -84.8106 262° West 414 476 32,000  Level Chicago Center
Sat 03:16:08 PM 42.8444 -84.9653 262° West 413 475 32,000  Level Chicago Center
Sat 03:17:10 PM 42.8281 -85.1203 262° West 414 476 32,000 -98 Level Chicago Center
Sat 03:18:11 PM 42.8103 -85.2767 261° West 416 479 31,800 -976 Descending Chicago Center
Sat 03:19:13 PM 42.7933 -85.4375 262° West 426 490 30,000 -1,694 Descending Chicago Center
Sat 03:20:15 PM 42.7700 -85.5956 259° West 426 490 28,300 -1,984 Descending Chicago Center
Sat 03:21:17 PM 42.7403 -85.7581 256° West 437 503 25,900 -2,390 Descending Chicago Center
Sat 03:22:18 PM 42.7097 -85.9225 256° West 444 511 23,400 -2,293 Descending Chicago Center
Sat 03:23:20 PM 42.6811 -86.0808 256° West 432 497 21,200 -1,597 Descending Chicago Center
Sat 03:24:22 PM 42.6467 -86.2664 256° West 422 486 20,100 -1,210 Descending Chicago Center
Sat 03:25:24 PM 42.6175 -86.4183 255° West 416 479 18,700 -1,512 Descending Chicago Center
Sat 03:26:25 PM 42.5894 -86.5642 255° West 401 461 17,000 -1,756 Descending Chicago Center
Sat 03:27:27 PM 42.5647 -86.7025 256° West 380 437 15,100 -1,887 Descending Chicago Center
Sat 03:28:29 PM 42.5306 -86.8378 251° West 380 437 13,100 -1,839 Descending Chicago Center
Sat 03:29:31 PM 42.4956 -86.9678 250° West 371 427 11,300 -1,463 Descending Chicago Center
Sat 03:30:32 PM 42.4622 -87.0839 249° West 337 388 10,100 -1,122 Descending Chicago Center
Sat 03:31:34 PM 42.4286 -87.2067 250° West 293 337 9,000 -532 Descending Chicago Center
Sat 03:32:36 PM 42.4019 -87.3039 250° West 279 321 9,000 -339 Level Chicago Center
Sat 03:33:38 PM 42.3756 -87.4014 250° West 281 323 8,300 -829 Descending Chicago Center
Sat 03:34:39 PM 42.3486 -87.4983 249° West 276 318 7,300 -634 Descending Chicago Center
Sat 03:35:41 PM 42.2914 -87.5728 224° Southwest 261 300 7,000 -145 Descending Chicago Center
Sat 03:36:43 PM 42.2417 -87.6272 219° Southwest 235 270 7,000 -435 Level Chicago Center
Sat 03:37:45 PM 42.1986 -87.6781 221° Southwest 197 227 6,100 -871 Descending Chicago Center

Login

Don't have an account? Register now (free) for customized features, flight alerts, and more!